sensor_id;sensor_type;location;lat;lon;timestamp;P1;durP1;ratioP1;P2;durP2;ratioP2
18610;SDS011;9435;52.122;5.502;2023-11-18T00:01:10;96.10;;;34.67;;
18610;SDS011;9435;52.122;5.502;2023-11-18T00:03:37;88.00;;;32.88;;
18610;SDS011;9435;52.122;5.502;2023-11-18T00:06:04;90.78;;;33.65;;
18610;SDS011;9435;52.122;5.502;2023-11-18T00:08:33;98.22;;;33.90;;
18610;SDS011;9435;52.122;5.502;2023-11-18T00:11:00;88.35;;;32.65;;
18610;SDS011;9435;52.122;5.502;2023-11-18T00:13:28;85.82;;;32.13;;
18610;SDS011;9435;52.122;5.502;2023-11-18T00:15:55;88.47;;;32.28;;
18610;SDS011;9435;52.122;5.502;2023-11-18T00:18:23;90.03;;;32.72;;
18610;SDS011;9435;52.122;5.502;2023-11-18T00:20:50;91.75;;;33.22;;
18610;SDS011;9435;52.122;5.502;2023-11-18T00:23:17;93.43;;;33.75;;
18610;SDS011;9435;52.122;5.502;2023-11-18T00:25:44;80.70;;;32.03;;
18610;SDS011;9435;52.122;5.502;2023-11-18T00:28:11;85.15;;;31.83;;
18610;SDS011;9435;52.122;5.502;2023-11-18T00:30:39;86.28;;;31.88;;
18610;SDS011;9435;52.122;5.502;2023-11-18T00:33:07;81.30;;;31.88;;
18610;SDS011;9435;52.122;5.502;2023-11-18T00:35:34;82.20;;;31.70;;
18610;SDS011;9435;52.122;5.502;2023-11-18T00:38:01;86.18;;;33.60;;
18610;SDS011;9435;52.122;5.502;2023-11-18T00:40:28;86.00;;;32.63;;
18610;SDS011;9435;52.122;5.502;2023-11-18T00:42:55;85.13;;;32.13;;
18610;SDS011;9435;52.122;5.502;2023-11-18T00:45:23;80.22;;;31.52;;
18610;SDS011;9435;52.122;5.502;2023-11-18T00:47:51;85.65;;;31.85;;
18610;SDS011;9435;52.122;5.502;2023-11-18T00:50:19;79.35;;;30.95;;
18610;SDS011;9435;52.122;5.502;2023-11-18T00:52:46;83.25;;;30.98;;
18610;SDS011;9435;52.122;5.502;2023-11-18T00:55:15;84.32;;;31.23;;
18610;SDS011;9435;52.122;5.502;2023-11-18T00:57:43;78.03;;;31.02;;
18610;SDS011;9435;52.122;5.502;2023-11-18T01:00:11;78.00;;;31.15;;
18610;SDS011;9435;52.122;5.502;2023-11-18T01:02:41;71.43;;;29.77;;
18610;SDS011;9435;52.122;5.502;2023-11-18T01:05:09;79.43;;;30.85;;
18610;SDS011;9435;52.122;5.502;2023-11-18T01:07:38;77.25;;;30.52;;
18610;SDS011;9435;52.122;5.502;2023-11-18T01:10:06;78.80;;;30.58;;
18610;SDS011;9435;52.122;5.502;2023-11-18T01:12:35;76.90;;;30.52;;
18610;SDS011;9435;52.122;5.502;2023-11-18T01:15:02;78.18;;;31.20;;
18610;SDS011;9435;52.122;5.502;2023-11-18T01:17:30;81.45;;;31.00;;
18610;SDS011;9435;52.122;5.502;2023-11-18T01:19:57;79.65;;;30.95;;
18610;SDS011;9435;52.122;5.502;2023-11-18T01:22:27;74.88;;;30.30;;
18610;SDS011;9435;52.122;5.502;2023-11-18T01:24:54;75.53;;;31.42;;
18610;SDS011;9435;52.122;5.502;2023-11-18T01:27:23;78.45;;;31.40;;
18610;SDS011;9435;52.122;5.502;2023-11-18T01:29:50;83.00;;;31.27;;
18610;SDS011;9435;52.122;5.502;2023-11-18T01:32:17;78.03;;;31.38;;
18610;SDS011;9435;52.122;5.502;2023-11-18T01:34:44;76.05;;;30.70;;
18610;SDS011;9435;52.122;5.502;2023-11-18T01:37:15;85.28;;;31.60;;
18610;SDS011;9435;52.122;5.502;2023-11-18T01:39:43;79.65;;;31.88;;
18610;SDS011;9435;52.122;5.502;2023-11-18T01:42:10;87.78;;;33.15;;
18610;SDS011;9435;52.122;5.502;2023-11-18T01:44:38;86.07;;;32.35;;
18610;SDS011;9435;52.122;5.502;2023-11-18T01:47:05;83.60;;;32.67;;
18610;SDS011;9435;52.122;5.502;2023-11-18T01:49:36;81.80;;;31.77;;
18610;SDS011;9435;52.122;5.502;2023-11-18T01:52:05;85.88;;;33.72;;
18610;SDS011;9435;52.122;5.502;2023-11-18T01:54:33;84.90;;;33.45;;
18610;SDS011;9435;52.122;5.502;2023-11-18T01:57:04;85.22;;;33.08;;
18610;SDS011;9435;52.122;5.502;2023-11-18T01:59:34;86.43;;;33.00;;
18610;SDS011;9435;52.122;5.502;2023-11-18T02:02:03;82.38;;;33.17;;
18610;SDS011;9435;52.122;5.502;2023-11-18T02:04:31;86.30;;;33.42;;
18610;SDS011;9435;52.122;5.502;2023-11-18T02:06:58;83.30;;;32.92;;
18610;SDS011;9435;52.122;5.502;2023-11-18T02:09:34;83.88;;;33.10;;
18610;SDS011;9435;52.122;5.502;2023-11-18T02:12:07;85.32;;;34.08;;
18610;SDS011;9435;52.122;5.502;2023-11-18T02:14:42;91.60;;;34.53;;
18610;SDS011;9435;52.122;5.502;2023-11-18T02:17:12;91.40;;;34.17;;
18610;SDS011;9435;52.122;5.502;2023-11-18T02:19:41;87.20;;;33.90;;
18610;SDS011;9435;52.122;5.502;2023-11-18T02:22:10;93.05;;;34.78;;
18610;SDS011;9435;52.122;5.502;2023-11-18T02:24:37;95.88;;;35.75;;
18610;SDS011;9435;52.122;5.502;2023-11-18T02:27:07;88.25;;;34.22;;
18610;SDS011;9435;52.122;5.502;2023-11-18T02:29:37;91.65;;;35.65;;
18610;SDS011;9435;52.122;5.502;2023-11-18T02:32:09;88.03;;;35.25;;
18610;SDS011;9435;52.122;5.502;2023-11-18T02:34:45;88.05;;;34.90;;
18610;SDS011;9435;52.122;5.502;2023-11-18T02:37:18;86.88;;;34.90;;
18610;SDS011;9435;52.122;5.502;2023-11-18T02:39:48;88.40;;;35.03;;
18610;SDS011;9435;52.122;5.502;2023-11-18T02:42:21;85.95;;;34.85;;
18610;SDS011;9435;52.122;5.502;2023-11-18T02:44:49;95.65;;;36.60;;
18610;SDS011;9435;52.122;5.502;2023-11-18T02:47:24;91.20;;;36.55;;
18610;SDS011;9435;52.122;5.502;2023-11-18T02:49:53;92.05;;;36.03;;
18610;SDS011;9435;52.122;5.502;2023-11-18T02:52:21;96.25;;;36.97;;
18610;SDS011;9435;52.122;5.502;2023-11-18T02:54:49;93.55;;;36.45;;
18610;SDS011;9435;52.122;5.502;2023-11-18T02:57:16;92.05;;;36.42;;
18610;SDS011;9435;52.122;5.502;2023-11-18T02:59:44;95.43;;;37.63;;
18610;SDS011;9435;52.122;5.502;2023-11-18T03:02:12;91.93;;;36.58;;
18610;SDS011;9435;52.122;5.502;2023-11-18T03:04:40;90.53;;;36.45;;
18610;SDS011;9435;52.122;5.502;2023-11-18T03:07:09;97.00;;;36.95;;
18610;SDS011;9435;52.122;5.502;2023-11-18T03:09:36;86.88;;;36.40;;
18610;SDS011;9435;52.122;5.502;2023-11-18T03:12:05;92.47;;;37.15;;
18610;SDS011;9435;52.122;5.502;2023-11-18T03:14:33;89.97;;;35.33;;
18610;SDS011;9435;52.122;5.502;2023-11-18T03:17:02;94.65;;;37.25;;
18610;SDS011;9435;52.122;5.502;2023-11-18T03:19:31;84.40;;;34.00;;
18610;SDS011;9435;52.122;5.502;2023-11-18T03:21:59;89.78;;;34.58;;
18610;SDS011;9435;52.122;5.502;2023-11-18T03:24:27;88.68;;;35.00;;
18610;SDS011;9435;52.122;5.502;2023-11-18T03:26:54;87.90;;;34.88;;
18610;SDS011;9435;52.122;5.502;2023-11-18T03:29:21;86.82;;;35.50;;
18610;SDS011;9435;52.122;5.502;2023-11-18T03:31:49;89.57;;;34.90;;
18610;SDS011;9435;52.122;5.502;2023-11-18T03:34:18;82.55;;;34.55;;
18610;SDS011;9435;52.122;5.502;2023-11-18T03:36:46;92.00;;;35.58;;
18610;SDS011;9435;52.122;5.502;2023-11-18T03:39:13;86.90;;;34.38;;
18610;SDS011;9435;52.122;5.502;2023-11-18T03:41:40;80.15;;;34.80;;
18610;SDS011;9435;52.122;5.502;2023-11-18T03:44:09;83.13;;;33.65;;
18610;SDS011;9435;52.122;5.502;2023-11-18T03:46:37;86.72;;;35.75;;
18610;SDS011;9435;52.122;5.502;2023-11-18T03:49:04;85.40;;;35.05;;
18610;SDS011;9435;52.122;5.502;2023-11-18T03:51:33;90.95;;;34.33;;
18610;SDS011;9435;52.122;5.502;2023-11-18T03:54:00;93.93;;;36.33;;
18610;SDS011;9435;52.122;5.502;2023-11-18T03:56:27;88.60;;;34.25;;
18610;SDS011;9435;52.122;5.502;2023-11-18T03:58:54;81.35;;;33.55;;
18610;SDS011;9435;52.122;5.502;2023-11-18T04:01:21;79.57;;;34.47;;
18610;SDS011;9435;52.122;5.502;2023-11-18T04:03:51;90.78;;;35.20;;
18610;SDS011;9435;52.122;5.502;2023-11-18T04:06:20;75.25;;;32.80;;
18610;SDS011;9435;52.122;5.502;2023-11-18T04:08:48;87.95;;;33.92;;
18610;SDS011;9435;52.122;5.502;2023-11-18T04:11:15;86.80;;;35.30;;
18610;SDS011;9435;52.122;5.502;2023-11-18T04:13:43;91.35;;;34.53;;
18610;SDS011;9435;52.122;5.502;2023-11-18T04:16:11;87.50;;;33.38;;
18610;SDS011;9435;52.122;5.502;2023-11-18T04:18:39;78.05;;;32.88;;
18610;SDS011;9435;52.122;5.502;2023-11-18T04:21:06;82.57;;;32.40;;
18610;SDS011;9435;52.122;5.502;2023-11-18T04:23:34;90.70;;;34.75;;
18610;SDS011;9435;52.122;5.502;2023-11-18T04:26:04;83.28;;;33.42;;
18610;SDS011;9435;52.122;5.502;2023-11-18T04:28:32;84.75;;;33.63;;
18610;SDS011;9435;52.122;5.502;2023-11-18T04:31:00;84.95;;;33.55;;
18610;SDS011;9435;52.122;5.502;2023-11-18T04:33:28;90.32;;;34.90;;
18610;SDS011;9435;52.122;5.502;2023-11-18T04:35:55;83.63;;;34.05;;
18610;SDS011;9435;52.122;5.502;2023-11-18T04:38:23;98.28;;;36.60;;
18610;SDS011;9435;52.122;5.502;2023-11-18T04:40:50;84.57;;;34.55;;
18610;SDS011;9435;52.122;5.502;2023-11-18T04:43:19;91.50;;;35.75;;
18610;SDS011;9435;52.122;5.502;2023-11-18T04:45:47;99.82;;;36.92;;
18610;SDS011;9435;52.122;5.502;2023-11-18T04:48:14;98.97;;;36.78;;
18610;SDS011;9435;52.122;5.502;2023-11-18T04:50:41;94.38;;;36.72;;
18610;SDS011;9435;52.122;5.502;2023-11-18T04:53:09;101.43;;;38.15;;
18610;SDS011;9435;52.122;5.502;2023-11-18T04:55:37;99.90;;;38.00;;
18610;SDS011;9435;52.122;5.502;2023-11-18T04:58:04;108.28;;;38.58;;
18610;SDS011;9435;52.122;5.502;2023-11-18T05:00:33;102.10;;;38.90;;
18610;SDS011;9435;52.122;5.502;2023-11-18T05:03:01;117.38;;;39.50;;
18610;SDS011;9435;52.122;5.502;2023-11-18T05:05:28;112.88;;;40.30;;
18610;SDS011;9435;52.122;5.502;2023-11-18T05:07:55;110.63;;;40.78;;
18610;SDS011;9435;52.122;5.502;2023-11-18T05:10:22;106.60;;;39.60;;
18610;SDS011;9435;52.122;5.502;2023-11-18T05:12:50;115.95;;;40.35;;
18610;SDS011;9435;52.122;5.502;2023-11-18T05:15:20;108.25;;;38.95;;
18610;SDS011;9435;52.122;5.502;2023-11-18T05:17:51;100.70;;;37.13;;
18610;SDS011;9435;52.122;5.502;2023-11-18T05:20:19;112.65;;;39.67;;
18610;SDS011;9435;52.122;5.502;2023-11-18T05:22:46;108.40;;;38.67;;
18610;SDS011;9435;52.122;5.502;2023-11-18T05:25:14;103.63;;;38.72;;
18610;SDS011;9435;52.122;5.502;2023-11-18T05:27:41;101.55;;;39.53;;
18610;SDS011;9435;52.122;5.502;2023-11-18T05:30:09;100.07;;;37.85;;
18610;SDS011;9435;52.122;5.502;2023-11-18T05:32:37;100.45;;;38.10;;
18610;SDS011;9435;52.122;5.502;2023-11-18T05:35:07;98.70;;;37.53;;
18610;SDS011;9435;52.122;5.502;2023-11-18T05:37:36;104.28;;;38.85;;
18610;SDS011;9435;52.122;5.502;2023-11-18T05:40:06;94.25;;;35.92;;
18610;SDS011;9435;52.122;5.502;2023-11-18T05:42:35;102.00;;;37.05;;
18610;SDS011;9435;52.122;5.502;2023-11-18T05:45:04;98.22;;;36.03;;
18610;SDS011;9435;52.122;5.502;2023-11-18T05:47:32;101.60;;;37.13;;
18610;SDS011;9435;52.122;5.502;2023-11-18T05:50:00;93.13;;;36.15;;
18610;SDS011;9435;52.122;5.502;2023-11-18T05:52:28;95.38;;;35.75;;
18610;SDS011;9435;52.122;5.502;2023-11-18T05:54:56;93.38;;;34.65;;
18610;SDS011;9435;52.122;5.502;2023-11-18T05:57:23;93.22;;;33.88;;
18610;SDS011;9435;52.122;5.502;2023-11-18T05:59:52;87.97;;;34.08;;
18610;SDS011;9435;52.122;5.502;2023-11-18T06:02:20;88.00;;;34.92;;
18610;SDS011;9435;52.122;5.502;2023-11-18T06:04:50;86.63;;;33.92;;
18610;SDS011;9435;52.122;5.502;2023-11-18T06:07:17;86.28;;;34.05;;
18610;SDS011;9435;52.122;5.502;2023-11-18T06:09:46;92.47;;;34.47;;
18610;SDS011;9435;52.122;5.502;2023-11-18T06:12:13;89.10;;;33.38;;
18610;SDS011;9435;52.122;5.502;2023-11-18T06:14:42;88.03;;;33.58;;
18610;SDS011;9435;52.122;5.502;2023-11-18T06:17:11;82.50;;;31.83;;
18610;SDS011;9435;52.122;5.502;2023-11-18T06:19:39;86.07;;;32.08;;
18610;SDS011;9435;52.122;5.502;2023-11-18T06:22:06;87.68;;;32.78;;
18610;SDS011;9435;52.122;5.502;2023-11-18T06:24:33;80.43;;;31.75;;
18610;SDS011;9435;52.122;5.502;2023-11-18T06:27:00;80.00;;;31.58;;
18610;SDS011;9435;52.122;5.502;2023-11-18T06:29:27;79.32;;;31.15;;
18610;SDS011;9435;52.122;5.502;2023-11-18T06:31:55;77.13;;;31.27;;
18610;SDS011;9435;52.122;5.502;2023-11-18T06:34:22;72.80;;;29.98;;
18610;SDS011;9435;52.122;5.502;2023-11-18T06:36:51;72.90;;;29.80;;
18610;SDS011;9435;52.122;5.502;2023-11-18T06:39:18;76.88;;;30.40;;
18610;SDS011;9435;52.122;5.502;2023-11-18T06:41:46;79.97;;;30.42;;
18610;SDS011;9435;52.122;5.502;2023-11-18T06:44:17;78.53;;;30.08;;
18610;SDS011;9435;52.122;5.502;2023-11-18T06:46:48;72.30;;;28.83;;
18610;SDS011;9435;52.122;5.502;2023-11-18T06:49:16;75.30;;;28.65;;
18610;SDS011;9435;52.122;5.502;2023-11-18T06:51:44;76.88;;;29.90;;
18610;SDS011;9435;52.122;5.502;2023-11-18T06:54:11;75.45;;;29.25;;
18610;SDS011;9435;52.122;5.502;2023-11-18T06:56:39;73.63;;;29.13;;
18610;SDS011;9435;52.122;5.502;2023-11-18T06:59:08;74.10;;;29.52;;
18610;SDS011;9435;52.122;5.502;2023-11-18T07:01:39;74.03;;;29.17;;
18610;SDS011;9435;52.122;5.502;2023-11-18T07:04:07;79.38;;;30.38;;
18610;SDS011;9435;52.122;5.502;2023-11-18T07:06:34;70.05;;;28.75;;
18610;SDS011;9435;52.122;5.502;2023-11-18T07:09:03;74.57;;;29.50;;
18610;SDS011;9435;52.122;5.502;2023-11-18T07:11:38;73.47;;;29.13;;
18610;SDS011;9435;52.122;5.502;2023-11-18T07:14:06;69.68;;;27.92;;
18610;SDS011;9435;52.122;5.502;2023-11-18T07:16:34;68.43;;;26.88;;
18610;SDS011;9435;52.122;5.502;2023-11-18T07:19:03;67.07;;;27.90;;
18610;SDS011;9435;52.122;5.502;2023-11-18T07:21:30;70.70;;;28.42;;
18610;SDS011;9435;52.122;5.502;2023-11-18T07:23:58;69.75;;;28.30;;
18610;SDS011;9435;52.122;5.502;2023-11-18T07:26:26;70.68;;;28.67;;
18610;SDS011;9435;52.122;5.502;2023-11-18T07:28:53;65.97;;;28.20;;
18610;SDS011;9435;52.122;5.502;2023-11-18T07:31:20;71.80;;;29.08;;
18610;SDS011;9435;52.122;5.502;2023-11-18T07:33:47;72.25;;;29.38;;
18610;SDS011;9435;52.122;5.502;2023-11-18T07:36:17;68.63;;;29.95;;
18610;SDS011;9435;52.122;5.502;2023-11-18T07:38:45;63.42;;;28.42;;
18610;SDS011;9435;52.122;5.502;2023-11-18T07:41:12;67.93;;;28.92;;
18610;SDS011;9435;52.122;5.502;2023-11-18T07:43:48;67.93;;;28.70;;
18610;SDS011;9435;52.122;5.502;2023-11-18T07:46:16;64.25;;;28.58;;
18610;SDS011;9435;52.122;5.502;2023-11-18T07:48:43;65.07;;;28.02;;
18610;SDS011;9435;52.122;5.502;2023-11-18T07:51:11;71.05;;;31.35;;
18610;SDS011;9435;52.122;5.502;2023-11-18T07:53:41;68.50;;;29.98;;
18610;SDS011;9435;52.122;5.502;2023-11-18T07:56:08;63.28;;;28.10;;
18610;SDS011;9435;52.122;5.502;2023-11-18T07:58:37;62.88;;;27.42;;
18610;SDS011;9435;52.122;5.502;2023-11-18T08:01:04;61.90;;;28.45;;
18610;SDS011;9435;52.122;5.502;2023-11-18T08:03:32;61.55;;;26.98;;
18610;SDS011;9435;52.122;5.502;2023-11-18T08:06:02;65.57;;;27.85;;
18610;SDS011;9435;52.122;5.502;2023-11-18T08:08:32;66.07;;;29.20;;
18610;SDS011;9435;52.122;5.502;2023-11-18T08:11:00;60.47;;;27.00;;
18610;SDS011;9435;52.122;5.502;2023-11-18T08:13:28;54.53;;;26.63;;
18610;SDS011;9435;52.122;5.502;2023-11-18T08:15:55;56.47;;;26.33;;
18610;SDS011;9435;52.122;5.502;2023-11-18T08:18:23;56.85;;;27.50;;
18610;SDS011;9435;52.122;5.502;2023-11-18T08:20:52;61.22;;;27.35;;
18610;SDS011;9435;52.122;5.502;2023-11-18T08:23:20;53.58;;;25.90;;
18610;SDS011;9435;52.122;5.502;2023-11-18T08:25:47;54.67;;;24.92;;
18610;SDS011;9435;52.122;5.502;2023-11-18T08:28:18;46.95;;;23.90;;
18610;SDS011;9435;52.122;5.502;2023-11-18T08:30:45;58.38;;;27.95;;
18610;SDS011;9435;52.122;5.502;2023-11-18T08:33:14;66.75;;;30.38;;
18610;SDS011;9435;52.122;5.502;2023-11-18T08:35:41;58.70;;;28.80;;
18610;SDS011;9435;52.122;5.502;2023-11-18T08:38:08;55.58;;;25.52;;
18610;SDS011;9435;52.122;5.502;2023-11-18T08:40:37;50.20;;;23.55;;
18610;SDS011;9435;52.122;5.502;2023-11-18T08:43:04;50.45;;;22.67;;
18610;SDS011;9435;52.122;5.502;2023-11-18T08:45:34;49.95;;;21.92;;
18610;SDS011;9435;52.122;5.502;2023-11-18T08:48:03;49.78;;;22.50;;
18610;SDS011;9435;52.122;5.502;2023-11-18T08:50:33;49.17;;;22.90;;
18610;SDS011;9435;52.122;5.502;2023-11-18T08:53:01;51.20;;;24.63;;
18610;SDS011;9435;52.122;5.502;2023-11-18T08:55:30;56.05;;;26.88;;
18610;SDS011;9435;52.122;5.502;2023-11-18T08:58:05;54.38;;;24.98;;
18610;SDS011;9435;52.122;5.502;2023-11-18T09:00:42;50.65;;;24.50;;
18610;SDS011;9435;52.122;5.502;2023-11-18T09:03:13;57.60;;;21.95;;
18610;SDS011;9435;52.122;5.502;2023-11-18T09:05:50;47.22;;;20.75;;
18610;SDS011;9435;52.122;5.502;2023-11-18T09:08:26;44.33;;;20.52;;
18610;SDS011;9435;52.122;5.502;2023-11-18T09:10:55;43.85;;;20.73;;
18610;SDS011;9435;52.122;5.502;2023-11-18T09:13:23;42.75;;;19.85;;
18610;SDS011;9435;52.122;5.502;2023-11-18T09:15:55;45.22;;;20.65;;
18610;SDS011;9435;52.122;5.502;2023-11-18T09:18:25;45.38;;;20.17;;
18610;SDS011;9435;52.122;5.502;2023-11-18T09:20:53;45.58;;;19.48;;
18610;SDS011;9435;52.122;5.502;2023-11-18T09:23:21;42.78;;;19.70;;
18610;SDS011;9435;52.122;5.502;2023-11-18T09:25:50;39.65;;;19.48;;
18610;SDS011;9435;52.122;5.502;2023-11-18T09:28:19;38.45;;;18.60;;
18610;SDS011;9435;52.122;5.502;2023-11-18T09:30:46;39.90;;;18.13;;
18610;SDS011;9435;52.122;5.502;2023-11-18T09:33:20;39.03;;;18.50;;
18610;SDS011;9435;52.122;5.502;2023-11-18T09:35:57;36.70;;;18.13;;
18610;SDS011;9435;52.122;5.502;2023-11-18T09:38:25;37.25;;;17.55;;
18610;SDS011;9435;52.122;5.502;2023-11-18T09:40:56;36.65;;;17.48;;
18610;SDS011;9435;52.122;5.502;2023-11-18T09:43:27;37.33;;;17.00;;
18610;SDS011;9435;52.122;5.502;2023-11-18T09:45:59;34.90;;;16.85;;
18610;SDS011;9435;52.122;5.502;2023-11-18T09:48:39;38.88;;;16.80;;
18610;SDS011;9435;52.122;5.502;2023-11-18T09:51:10;32.15;;;16.13;;
18610;SDS011;9435;52.122;5.502;2023-11-18T09:53:42;34.03;;;15.98;;
18610;SDS011;9435;52.122;5.502;2023-11-18T09:56:15;38.15;;;15.65;;
18610;SDS011;9435;52.122;5.502;2023-11-18T09:58:54;34.65;;;15.68;;
18610;SDS011;9435;52.122;5.502;2023-11-18T10:01:30;34.20;;;16.13;;
18610;SDS011;9435;52.122;5.502;2023-11-18T10:04:06;38.05;;;16.35;;
18610;SDS011;9435;52.122;5.502;2023-11-18T10:06:34;32.70;;;14.77;;
18610;SDS011;9435;52.122;5.502;2023-11-18T10:09:05;36.53;;;15.02;;
18610;SDS011;9435;52.122;5.502;2023-11-18T10:11:42;36.17;;;15.15;;
18610;SDS011;9435;52.122;5.502;2023-11-18T10:14:11;37.13;;;15.20;;
18610;SDS011;9435;52.122;5.502;2023-11-18T10:16:41;32.63;;;14.65;;
18610;SDS011;9435;52.122;5.502;2023-11-18T10:19:12;34.03;;;14.63;;
18610;SDS011;9435;52.122;5.502;2023-11-18T10:21:42;34.05;;;14.45;;
18610;SDS011;9435;52.122;5.502;2023-11-18T10:24:14;32.58;;;14.77;;
18610;SDS011;9435;52.122;5.502;2023-11-18T10:26:44;36.95;;;15.52;;
18610;SDS011;9435;52.122;5.502;2023-11-18T10:29:14;32.00;;;14.77;;
18610;SDS011;9435;52.122;5.502;2023-11-18T10:31:43;35.60;;;15.10;;
18610;SDS011;9435;52.122;5.502;2023-11-18T10:34:13;29.33;;;14.68;;
18610;SDS011;9435;52.122;5.502;2023-11-18T10:36:41;36.90;;;15.80;;
18610;SDS011;9435;52.122;5.502;2023-11-18T10:39:27;33.72;;;15.35;;
18610;SDS011;9435;52.122;5.502;2023-11-18T10:41:58;34.55;;;14.50;;
18610;SDS011;9435;52.122;5.502;2023-11-18T10:44:25;37.20;;;15.13;;
18610;SDS011;9435;52.122;5.502;2023-11-18T10:46:54;31.52;;;14.00;;
18610;SDS011;9435;52.122;5.502;2023-11-18T10:49:25;32.58;;;14.32;;
18610;SDS011;9435;52.122;5.502;2023-11-18T10:51:54;29.48;;;14.00;;
18610;SDS011;9435;52.122;5.502;2023-11-18T10:54:22;37.00;;;14.02;;
18610;SDS011;9435;52.122;5.502;2023-11-18T10:56:51;31.75;;;14.32;;
18610;SDS011;9435;52.122;5.502;2023-11-18T10:59:21;31.17;;;14.60;;
18610;SDS011;9435;52.122;5.502;2023-11-18T11:01:50;29.15;;;13.38;;
18610;SDS011;9435;52.122;5.502;2023-11-18T11:04:18;30.38;;;14.25;;
18610;SDS011;9435;52.122;5.502;2023-11-18T11:06:47;31.63;;;14.35;;
18610;SDS011;9435;52.122;5.502;2023-11-18T11:09:19;31.80;;;13.55;;
18610;SDS011;9435;52.122;5.502;2023-11-18T11:11:52;33.42;;;14.10;;
18610;SDS011;9435;52.122;5.502;2023-11-18T11:14:21;35.38;;;14.55;;
18610;SDS011;9435;52.122;5.502;2023-11-18T11:16:54;29.95;;;13.73;;
18610;SDS011;9435;52.122;5.502;2023-11-18T11:19:26;31.50;;;14.15;;
18610;SDS011;9435;52.122;5.502;2023-11-18T11:22:03;33.58;;;14.43;;
18610;SDS011;9435;52.122;5.502;2023-11-18T11:24:47;32.40;;;13.93;;
18610;SDS011;9435;52.122;5.502;2023-11-18T11:27:38;32.53;;;14.27;;
18610;SDS011;9435;52.122;5.502;2023-11-18T11:30:16;26.17;;;13.43;;
18610;SDS011;9435;52.122;5.502;2023-11-18T11:32:50;29.23;;;13.60;;
18610;SDS011;9435;52.122;5.502;2023-11-18T11:35:19;32.88;;;13.65;;
18610;SDS011;9435;52.122;5.502;2023-11-18T11:37:51;28.23;;;14.32;;
18610;SDS011;9435;52.122;5.502;2023-11-18T11:40:22;32.03;;;14.77;;
18610;SDS011;9435;52.122;5.502;2023-11-18T11:42:50;35.10;;;14.90;;
18610;SDS011;9435;52.122;5.502;2023-11-18T11:45:21;33.35;;;15.43;;
18610;SDS011;9435;52.122;5.502;2023-11-18T11:47:53;35.15;;;14.93;;
18610;SDS011;9435;52.122;5.502;2023-11-18T11:50:41;31.48;;;14.50;;
18610;SDS011;9435;52.122;5.502;2023-11-18T11:53:41;32.40;;;14.30;;
18610;SDS011;9435;52.122;5.502;2023-11-18T11:56:14;33.65;;;13.60;;
18610;SDS011;9435;52.122;5.502;2023-11-18T11:58:46;31.10;;;14.57;;
18610;SDS011;9435;52.122;5.502;2023-11-18T12:01:27;29.73;;;13.90;;
18610;SDS011;9435;52.122;5.502;2023-11-18T12:04:02;31.73;;;14.43;;
18610;SDS011;9435;52.122;5.502;2023-11-18T12:06:32;40.17;;;14.77;;
18610;SDS011;9435;52.122;5.502;2023-11-18T12:09:02;29.98;;;13.75;;
18610;SDS011;9435;52.122;5.502;2023-11-18T12:11:32;33.50;;;13.63;;
18610;SDS011;9435;52.122;5.502;2023-11-18T12:14:05;28.70;;;13.02;;
18610;SDS011;9435;52.122;5.502;2023-11-18T12:17:01;31.33;;;13.18;;
18610;SDS011;9435;52.122;5.502;2023-11-18T12:19:34;28.85;;;13.55;;
18610;SDS011;9435;52.122;5.502;2023-11-18T12:22:21;28.92;;;12.45;;
18610;SDS011;9435;52.122;5.502;2023-11-18T12:28:09;28.73;;;11.93;;
18610;SDS011;9435;52.122;5.502;2023-11-18T12:30:40;27.35;;;11.10;;
18610;SDS011;9435;52.122;5.502;2023-11-18T12:36:39;24.17;;;10.90;;
18610;SDS011;9435;52.122;5.502;2023-11-18T12:40:02;24.45;;;10.18;;
18610;SDS011;9435;52.122;5.502;2023-11-18T12:42:59;20.55;;;9.30;;
18610;SDS011;9435;52.122;5.502;2023-11-18T12:45:50;23.23;;;9.57;;
18610;SDS011;9435;52.122;5.502;2023-11-18T12:48:41;21.63;;;9.30;;
18610;SDS011;9435;52.122;5.502;2023-11-18T12:51:11;21.75;;;9.95;;
18610;SDS011;9435;52.122;5.502;2023-11-18T12:53:45;22.30;;;9.35;;
18610;SDS011;9435;52.122;5.502;2023-11-18T12:56:15;21.05;;;9.32;;
18610;SDS011;9435;52.122;5.502;2023-11-18T12:58:45;22.92;;;9.65;;
18610;SDS011;9435;52.122;5.502;2023-11-18T13:01:13;26.95;;;8.80;;
18610;SDS011;9435;52.122;5.502;2023-11-18T13:03:41;16.50;;;8.75;;
18610;SDS011;9435;52.122;5.502;2023-11-18T13:06:09;18.30;;;9.10;;
18610;SDS011;9435;52.122;5.502;2023-11-18T13:08:37;23.35;;;9.02;;
18610;SDS011;9435;52.122;5.502;2023-11-18T13:11:04;23.77;;;9.15;;
18610;SDS011;9435;52.122;5.502;2023-11-18T13:13:37;19.63;;;9.40;;
18610;SDS011;9435;52.122;5.502;2023-11-18T13:16:05;20.58;;;9.38;;
18610;SDS011;9435;52.122;5.502;2023-11-18T13:18:42;18.70;;;8.85;;
18610;SDS011;9435;52.122;5.502;2023-11-18T13:21:15;15.65;;;8.38;;
18610;SDS011;9435;52.122;5.502;2023-11-18T13:23:47;21.10;;;8.63;;
18610;SDS011;9435;52.122;5.502;2023-11-18T13:26:15;21.83;;;9.05;;
18610;SDS011;9435;52.122;5.502;2023-11-18T13:28:42;16.67;;;7.80;;
18610;SDS011;9435;52.122;5.502;2023-11-18T13:31:09;19.30;;;7.82;;
18610;SDS011;9435;52.122;5.502;2023-11-18T13:33:43;20.20;;;8.13;;
18610;SDS011;9435;52.122;5.502;2023-11-18T13:36:10;15.35;;;7.68;;
18610;SDS011;9435;52.122;5.502;2023-11-18T13:38:38;16.05;;;8.05;;
18610;SDS011;9435;52.122;5.502;2023-11-18T13:41:06;14.85;;;7.90;;
18610;SDS011;9435;52.122;5.502;2023-11-18T13:43:43;14.48;;;7.53;;
18610;SDS011;9435;52.122;5.502;2023-11-18T13:46:12;19.65;;;7.43;;
18610;SDS011;9435;52.122;5.502;2023-11-18T13:48:39;16.67;;;7.88;;
18610;SDS011;9435;52.122;5.502;2023-11-18T13:51:08;18.00;;;7.95;;
18610;SDS011;9435;52.122;5.502;2023-11-18T13:53:39;19.45;;;8.57;;
18610;SDS011;9435;52.122;5.502;2023-11-18T13:56:08;22.33;;;9.35;;
18610;SDS011;9435;52.122;5.502;2023-11-18T13:58:36;22.95;;;10.38;;
18610;SDS011;9435;52.122;5.502;2023-11-18T14:01:04;25.23;;;10.35;;
18610;SDS011;9435;52.122;5.502;2023-11-18T14:03:33;23.83;;;10.50;;
18610;SDS011;9435;52.122;5.502;2023-11-18T14:06:02;21.63;;;10.13;;
18610;SDS011;9435;52.122;5.502;2023-11-18T14:08:33;23.17;;;10.27;;
18610;SDS011;9435;52.122;5.502;2023-11-18T14:11:00;17.52;;;8.45;;
18610;SDS011;9435;52.122;5.502;2023-11-18T14:13:27;17.10;;;7.90;;
18610;SDS011;9435;52.122;5.502;2023-11-18T14:15:56;15.00;;;7.63;;
18610;SDS011;9435;52.122;5.502;2023-11-18T14:18:24;12.45;;;6.63;;
18610;SDS011;9435;52.122;5.502;2023-11-18T14:20:52;10.18;;;5.88;;
18610;SDS011;9435;52.122;5.502;2023-11-18T14:23:20;10.50;;;5.43;;
18610;SDS011;9435;52.122;5.502;2023-11-18T14:25:48;9.68;;;5.40;;
18610;SDS011;9435;52.122;5.502;2023-11-18T14:28:15;9.43;;;5.10;;
18610;SDS011;9435;52.122;5.502;2023-11-18T14:30:44;7.53;;;4.35;;
18610;SDS011;9435;52.122;5.502;2023-11-18T14:33:11;7.10;;;4.18;;
18610;SDS011;9435;52.122;5.502;2023-11-18T14:35:38;5.75;;;3.97;;
18610;SDS011;9435;52.122;5.502;2023-11-18T14:38:05;7.82;;;4.00;;
18610;SDS011;9435;52.122;5.502;2023-11-18T14:40:33;9.40;;;4.32;;
18610;SDS011;9435;52.122;5.502;2023-11-18T14:43:02;6.32;;;3.92;;
18610;SDS011;9435;52.122;5.502;2023-11-18T14:45:30;7.53;;;4.10;;
18610;SDS011;9435;52.122;5.502;2023-11-18T14:47:57;7.20;;;4.25;;
18610;SDS011;9435;52.122;5.502;2023-11-18T14:50:25;6.55;;;4.20;;
18610;SDS011;9435;52.122;5.502;2023-11-18T14:52:52;7.85;;;4.43;;
18610;SDS011;9435;52.122;5.502;2023-11-18T14:55:24;5.95;;;3.88;;
18610;SDS011;9435;52.122;5.502;2023-11-18T14:57:52;6.15;;;3.80;;